createdAt,value
2023-05-19T00:00:03.567Z,101288
2023-05-19T00:05:55.770Z,101283
2023-05-19T00:11:47.414Z,101281
2023-05-19T00:17:39.623Z,101280
2023-05-19T00:23:32.613Z,101275
2023-05-19T00:29:23.655Z,101270
2023-05-19T00:35:15.495Z,101269
2023-05-19T00:41:09.047Z,101274
2023-05-19T00:47:00.858Z,101271
2023-05-19T00:52:52.994Z,101270
2023-05-19T00:58:45.215Z,101267
2023-05-19T01:04:36.849Z,101280
2023-05-19T01:10:29.650Z,101275
2023-05-19T01:16:22.485Z,101275
2023-05-19T01:22:14.670Z,101272
2023-05-19T01:28:06.075Z,101272
2023-05-19T01:33:59.841Z,101274
2023-05-19T01:39:52.573Z,101278
2023-05-19T01:45:44.895Z,101272
2023-05-19T01:51:37.067Z,101275
2023-05-19T01:57:30.253Z,101268
2023-05-19T02:03:22.094Z,101271
2023-05-19T02:09:14.540Z,101269
2023-05-19T02:15:07.120Z,101273
2023-05-19T02:20:59.489Z,101275
2023-05-19T02:26:51.754Z,101274
2023-05-19T02:32:44.412Z,101275
2023-05-19T02:38:34.535Z,101279
2023-05-19T02:44:26.473Z,101275
2023-05-19T02:50:18.965Z,101271
2023-05-19T02:56:11.532Z,101273
2023-05-19T03:02:04.676Z,101274
2023-05-19T03:07:56.622Z,101267
2023-05-19T03:13:49.278Z,101259
2023-05-19T03:19:43.608Z,101258
2023-05-19T03:25:35.330Z,101250
2023-05-19T03:31:27.499Z,101245
2023-05-19T03:37:19.201Z,101255
2023-05-19T03:43:10.919Z,101262
2023-05-19T03:49:04.007Z,101268
2023-05-19T03:54:56.383Z,101270
2023-05-19T04:00:49.535Z,101262
2023-05-19T04:06:42.016Z,101260
2023-05-19T04:12:33.904Z,101266
2023-05-19T04:18:29.549Z,101264
2023-05-19T04:24:21.125Z,101266
2023-05-19T04:30:14.165Z,101267
2023-05-19T04:36:08.931Z,101258
2023-05-19T04:42:02.276Z,101260
2023-05-19T04:47:54.680Z,101270
2023-05-19T04:53:49.772Z,101270
2023-05-19T04:59:41.280Z,101269
2023-05-19T05:05:36.515Z,101277
2023-05-19T05:11:30.365Z,101275
2023-05-19T05:17:22.923Z,101271
2023-05-19T05:23:15.108Z,101276
2023-05-19T05:29:07.216Z,101273
2023-05-19T05:34:59.501Z,101268
2023-05-19T05:40:54.627Z,101263
2023-05-19T05:46:54.323Z,101257
2023-05-19T05:52:48.555Z,101270
2023-05-19T05:58:44.553Z,101263
2023-05-19T06:04:37.395Z,101268
2023-05-19T06:10:33.221Z,101261
2023-05-19T06:16:29.268Z,101260
2023-05-19T06:22:21.381Z,101260
2023-05-19T06:28:10.889Z,101265
2023-05-19T06:34:19.992Z,101256
2023-05-19T06:40:11.050Z,101257
2023-05-19T06:46:03.051Z,101256
2023-05-19T06:51:54.997Z,101255
2023-05-19T06:57:47.519Z,101251
2023-05-19T07:03:41.740Z,101256
2023-05-19T07:09:34.626Z,101245
2023-05-19T07:15:26.715Z,101251
2023-05-19T07:21:18.598Z,101237
2023-05-19T07:27:12.512Z,101238
2023-05-19T07:33:04.461Z,101233
2023-05-19T07:38:56.053Z,101237
2023-05-19T07:44:48.053Z,101226
2023-05-19T07:50:39.965Z,101215
2023-05-19T07:56:32.462Z,101222
2023-05-19T08:02:24.759Z,101216
2023-05-19T08:08:17.815Z,101216
2023-05-19T08:14:09.149Z,101214
2023-05-19T08:20:01.872Z,101208
2023-05-19T08:25:54.852Z,101196
2023-05-19T08:31:46.226Z,101202
2023-05-19T08:38:47.793Z,101187
2023-05-19T08:44:38.168Z,101174
2023-05-19T08:50:30.271Z,101178
2023-05-19T08:56:23.673Z,101167
2023-05-19T09:02:16.714Z,101161
2023-05-19T09:08:08.134Z,101157
2023-05-19T09:14:00.106Z,101156
2023-05-19T09:19:50.778Z,101149
2023-05-19T09:25:42.616Z,101141
2023-05-19T09:31:35.036Z,101128
2023-05-19T09:37:26.989Z,101129
2023-05-19T09:43:19.057Z,101130
2023-05-19T09:49:12.786Z,101130
2023-05-19T09:55:06.855Z,101128
2023-05-19T10:01:01.943Z,101120
2023-05-19T10:06:55.004Z,101110
2023-05-19T10:12:46.663Z,101106
2023-05-19T10:18:37.507Z,101101
2023-05-19T10:24:30.489Z,101095
2023-05-19T10:30:22.605Z,101094
2023-05-19T10:36:14.908Z,101094
2023-05-19T10:42:07.272Z,101086
2023-05-19T10:47:59.410Z,101078
2023-05-19T10:53:49.870Z,101086
2023-05-19T10:59:39.617Z,101081
2023-05-19T11:05:29.460Z,101077
2023-05-19T11:11:20.687Z,101069
2023-05-19T11:17:13.675Z,101062
2023-05-19T11:23:05.078Z,101063
2023-05-19T11:28:57.673Z,101058
2023-05-19T11:34:49.479Z,101055
2023-05-19T11:40:41.225Z,101043
2023-05-19T11:46:34.352Z,101028
2023-05-19T11:52:25.922Z,101039
2023-05-19T11:58:17.971Z,101027
2023-05-19T12:04:09.980Z,101019
2023-05-19T12:10:02.214Z,101010
2023-05-19T12:15:54.708Z,101013
2023-05-19T12:21:47.039Z,101005
2023-05-19T12:27:39.057Z,100995
2023-05-19T12:33:31.416Z,100989
2023-05-19T12:39:25.321Z,100991
2023-05-19T12:45:17.719Z,100982
2023-05-19T12:51:12.130Z,100987
2023-05-19T12:57:04.789Z,100977
2023-05-19T13:02:58.736Z,100977
2023-05-19T13:08:51.503Z,100966
2023-05-19T13:14:43.981Z,100958
2023-05-19T13:20:36.761Z,100967
2023-05-19T13:26:28.846Z,100967
2023-05-19T13:32:21.127Z,100956
2023-05-19T13:38:14.472Z,100937
2023-05-19T13:44:10.630Z,100939
2023-05-19T13:50:07.381Z,100946
2023-05-19T13:56:00.819Z,100926
2023-05-19T14:01:53.086Z,100933
2023-05-19T14:07:45.828Z,100922
2023-05-19T14:13:44.934Z,100918
2023-05-19T14:19:43.304Z,100910
2023-05-19T14:25:35.432Z,100904
2023-05-19T14:31:30.600Z,100905
2023-05-19T14:37:23.043Z,100887
2023-05-19T14:43:14.941Z,100903
2023-05-19T14:49:07.988Z,100894
2023-05-19T14:54:59.776Z,100897
2023-05-19T15:00:52.602Z,100889
2023-05-19T15:06:52.460Z,100887
2023-05-19T15:12:58.065Z,100882
2023-05-19T15:18:50.079Z,100880
2023-05-19T15:24:42.130Z,100879
2023-05-19T15:31:46.507Z,100866
2023-05-19T15:38:48.528Z,100867
2023-05-19T15:46:58.761Z,100854
2023-05-19T15:52:48.766Z,100854
2023-05-19T15:59:50.377Z,100841
2023-05-19T16:09:12.479Z,100842
2023-05-19T16:15:06.837Z,100842
2023-05-19T16:22:10.397Z,100834
2023-05-19T16:28:01.961Z,100833
2023-05-19T16:35:05.023Z,100830
2023-05-19T16:40:58.954Z,100833
2023-05-19T16:48:00.563Z,100823
2023-05-19T16:56:16.621Z,100826
2023-05-19T17:02:07.641Z,100826
2023-05-19T17:17:18.101Z,100816
2023-05-19T17:23:07.944Z,100826
2023-05-19T17:29:00.541Z,100837
2023-05-19T17:34:53.706Z,100833
2023-05-19T17:40:48.550Z,100831
2023-05-19T17:46:42.050Z,100834
2023-05-19T17:53:46.510Z,100837
2023-05-19T18:00:50.441Z,100836
2023-05-19T18:09:00.177Z,100841
2023-05-19T18:14:48.789Z,100845
2023-05-19T18:20:41.077Z,100846
2023-05-19T18:27:42.826Z,100866
2023-05-19T18:34:44.376Z,100861
2023-05-19T18:41:46.291Z,100874
2023-05-19T18:48:43.529Z,100878
2023-05-19T18:56:51.868Z,100882
2023-05-19T19:03:51.339Z,100872
2023-05-19T19:09:42.683Z,100875
2023-05-19T19:15:34.632Z,100874
2023-05-19T19:21:30.753Z,100869
2023-05-19T19:27:22.265Z,100901
2023-05-19T19:33:14.749Z,100897
2023-05-19T19:39:05.184Z,100900
2023-05-19T19:45:00.657Z,100911
2023-05-19T19:50:54.296Z,100908
2023-05-19T20:02:37.201Z,100932
2023-05-19T20:14:40.094Z,100933
2023-05-19T20:20:29.925Z,100928
2023-05-19T20:26:22.238Z,100933
2023-05-19T20:32:13.385Z,100933
2023-05-19T20:40:24.637Z,100933
2023-05-19T20:47:23.857Z,100956
2023-05-19T20:53:17.396Z,100954
2023-05-19T20:59:08.580Z,100961
2023-05-19T21:05:01.419Z,100959
2023-05-19T21:11:01.173Z,100953
2023-05-19T21:16:58.622Z,100966
2023-05-19T21:22:49.721Z,100964
2023-05-19T21:28:40.199Z,100961
2023-05-19T21:35:46.852Z,100973
2023-05-19T21:41:39.045Z,100971
2023-05-19T21:48:40.926Z,100982
2023-05-19T21:54:33.055Z,100979
2023-05-19T22:02:45.589Z,100987
2023-05-19T22:08:36.714Z,100984
2023-05-19T22:18:00.515Z,100984
2023-05-19T22:25:03.849Z,100973
2023-05-19T22:30:53.983Z,100976
2023-05-19T22:37:57.396Z,100976
2023-05-19T22:50:43.195Z,100971
2023-05-19T22:57:42.366Z,100972
2023-05-19T23:03:38.007Z,100971
2023-05-19T23:10:39.717Z,100968
2023-05-19T23:18:50.909Z,100961
2023-05-19T23:32:49.922Z,100961
2023-05-19T23:39:49.240Z,100954
